Time;durP1;ratioP1;P1;durP2;ratioP2;P2;SDS_P1;SDS_P2;PMS_P1;PMS_P2;Temp;Humidity;BMP_temperature;BMP_pressure;BME280_temperature;BME280_humidity;BME280_pressure;Samples;Min_cycle;Max_cycle;Signal;HPM_P1;HPM_P2
2021/11/05 00:02:22;;;;;;;11.00;6.40;;;7.60;99.90;;;;;;5065882;28;20718;-57
2021/11/05 00:04:48;;;;;;;9.10;5.20;;;7.60;99.90;;;;;;5069062;28;20426;-57
2021/11/05 00:07:14;;;;;;;9.97;6.10;;;7.60;99.90;;;;;;5069646;28;20763;-57
2021/11/05 00:09:40;;;;;;;9.15;4.85;;;7.60;99.90;;;;;;5070485;28;20384;-59
2021/11/05 00:12:07;;;;;;;8.88;6.00;;;7.70;99.90;;;;;;5070717;28;20487;-56
2021/11/05 00:14:32;;;;;;;11.48;5.00;;;7.70;99.90;;;;;;5070983;28;20376;-56
2021/11/05 00:16:58;;;;;;;9.27;5.47;;;7.80;99.90;;;;;;5068483;28;21065;-57
2021/11/05 00:19:24;;;;;;;8.90;5.30;;;7.80;99.90;;;;;;5071083;28;20391;-57
2021/11/05 00:21:49;;;;;;;10.38;5.70;;;7.80;99.90;;;;;;5066687;28;20418;-56
2021/11/05 00:24:15;;;;;;;8.98;5.40;;;7.80;99.90;;;;;;5070541;28;20899;-58
2021/11/05 00:26:41;;;;;;;10.47;5.70;;;7.80;99.90;;;;;;5069790;28;20716;-59
2021/11/05 00:29:06;;;;;;;8.32;5.03;;;7.80;99.90;;;;;;5070540;28;20466;-56
2021/11/05 00:31:32;;;;;;;8.60;5.38;;;7.80;99.90;;;;;;5070645;28;20516;-57
2021/11/05 00:33:57;;;;;;;9.37;5.37;;;7.70;99.90;;;;;;5069860;28;20513;-57
2021/11/05 00:36:23;;;;;;;8.70;5.15;;;7.70;99.90;;;;;;5070402;28;20471;-56
2021/11/05 00:38:49;;;;;;;10.10;6.27;;;7.80;99.90;;;;;;5069839;28;20518;-56
2021/11/05 00:41:15;;;;;;;8.60;5.28;;;7.70;99.90;;;;;;5069338;28;20428;-56
2021/11/05 00:43:42;;;;;;;8.75;5.15;;;7.70;99.90;;;;;;5069702;28;20404;-58
2021/11/05 00:46:08;;;;;;;10.93;5.97;;;7.70;99.90;;;;;;5070620;28;20391;-56
2021/11/05 00:48:34;;;;;;;9.90;5.27;;;7.70;99.90;;;;;;5070307;28;20380;-56
2021/11/05 00:51:00;;;;;;;9.70;5.37;;;7.80;99.90;;;;;;5069580;28;20383;-57
2021/11/05 00:53:26;;;;;;;9.60;5.47;;;7.70;99.90;;;;;;5070366;28;20409;-57
2021/11/05 00:55:52;;;;;;;9.07;5.63;;;7.70;99.90;;;;;;5069453;28;20867;-57
2021/11/05 00:58:18;;;;;;;11.88;6.22;;;7.80;99.90;;;;;;5066973;28;20387;-57
2021/11/05 01:00:44;;;;;;;11.45;6.75;;;7.80;99.90;;;;;;5068103;28;20396;-57
2021/11/05 01:03:10;;;;;;;10.85;5.90;;;7.80;99.90;;;;;;5056709;28;20399;-56
2021/11/05 01:05:36;;;;;;;11.82;6.78;;;7.70;99.90;;;;;;5069565;28;20467;-57
2021/11/05 01:08:03;;;;;;;12.03;6.77;;;7.80;99.90;;;;;;5069506;28;20487;-56
2021/11/05 01:10:30;;;;;;;10.70;6.00;;;7.80;99.90;;;;;;5069744;28;20399;-57
2021/11/05 01:12:55;;;;;;;10.60;5.97;;;7.80;99.90;;;;;;5069238;28;20390;-56
2021/11/05 01:15:21;;;;;;;11.30;6.90;;;7.60;99.90;;;;;;5068664;28;20518;-57
2021/11/05 01:17:47;;;;;;;12.35;7.53;;;7.50;99.90;;;;;;5068795;28;20671;-57
2021/11/05 01:20:16;;;;;;;11.60;7.47;;;7.40;99.90;;;;;;5067835;28;20395;-57
2021/11/05 01:22:43;;;;;;;10.77;6.90;;;7.50;99.90;;;;;;5067554;28;20407;-58
2021/11/05 01:25:09;;;;;;;12.80;7.22;;;7.50;99.90;;;;;;5069226;28;20798;-57
2021/11/05 01:27:35;;;;;;;11.23;6.25;;;7.40;99.90;;;;;;5069290;28;20391;-57
2021/11/05 01:30:01;;;;;;;12.60;7.50;;;7.30;99.90;;;;;;5069068;28;20680;-57
2021/11/05 01:32:27;;;;;;;12.18;6.88;;;7.30;99.90;;;;;;5068921;28;20874;-57
2021/11/05 01:34:53;;;;;;;11.85;6.53;;;7.40;99.90;;;;;;5068745;28;20387;-57
2021/11/05 01:37:19;;;;;;;11.13;6.95;;;7.40;99.90;;;;;;5069266;28;20756;-57
2021/11/05 01:39:45;;;;;;;11.90;6.43;;;7.40;99.90;;;;;;5068300;28;20384;-57
2021/11/05 01:42:11;;;;;;;12.23;7.18;;;7.40;99.90;;;;;;5069086;28;20815;-57
2021/11/05 01:44:37;;;;;;;13.20;7.03;;;7.50;99.90;;;;;;5069604;28;21163;-57
2021/11/05 01:47:03;;;;;;;10.77;6.90;;;7.40;99.90;;;;;;5068472;28;20395;-57
2021/11/05 01:49:29;;;;;;;12.00;7.55;;;7.50;99.90;;;;;;5068881;28;20383;-57
2021/11/05 01:51:56;;;;;;;9.95;6.30;;;7.50;99.90;;;;;;5068164;28;20395;-57
2021/11/05 01:54:23;;;;;;;12.27;6.80;;;7.60;99.90;;;;;;5068875;28;20379;-57
2021/11/05 01:56:50;;;;;;;13.30;7.60;;;7.60;99.90;;;;;;5067857;28;20440;-58
2021/11/05 01:59:24;;;;;;;12.73;6.88;;;7.70;99.90;;;;;;5069157;28;20388;-57
2021/11/05 02:01:50;;;;;;;11.40;7.00;;;7.60;99.90;;;;;;5068037;28;20383;-57
2021/11/05 02:04:16;;;;;;;14.60;7.18;;;7.60;99.90;;;;;;5068736;28;20435;-57
2021/11/05 02:06:44;;;;;;;10.98;6.55;;;7.60;99.90;;;;;;5068377;28;20380;-59
2021/11/05 02:09:15;;;;;;;9.55;6.05;;;7.70;99.90;;;;;;5068802;28;20912;-58
2021/11/05 02:11:41;;;;;;;10.50;5.90;;;7.60;99.90;;;;;;5067625;28;20399;-59
2021/11/05 02:14:13;;;;;;;11.02;5.72;;;7.50;99.90;;;;;;5068782;28;20388;-57
2021/11/05 02:16:41;;;;;;;9.32;5.70;;;7.50;99.90;;;;;;5068702;28;20376;-57
2021/11/05 02:19:12;;;;;;;10.10;5.60;;;7.60;99.90;;;;;;5068569;28;20379;-57
2021/11/05 02:21:39;;;;;;;9.93;5.90;;;7.70;99.90;;;;;;5068791;28;20518;-57
2021/11/05 02:24:06;;;;;;;9.13;5.20;;;7.60;99.90;;;;;;5068135;28;20472;-57
2021/11/05 02:26:32;;;;;;;10.07;5.90;;;7.60;99.90;;;;;;5068530;28;20376;-55
2021/11/05 02:28:58;;;;;;;12.30;6.43;;;7.50;99.90;;;;;;5067834;28;20482;-55
2021/11/05 02:31:23;;;;;;;10.73;6.00;;;7.60;99.90;;;;;;5068461;28;20458;-55
2021/11/05 02:33:49;;;;;;;9.63;5.60;;;7.70;99.90;;;;;;5068100;28;20379;-55
2021/11/05 02:36:15;;;;;;;10.90;6.10;;;7.70;99.90;;;;;;5066803;28;20833;-55
2021/11/05 02:38:41;;;;;;;9.88;5.38;;;8.30;99.90;;;;;;5068496;28;20392;-57
2021/11/05 02:41:06;;;;;;;9.37;5.60;;;7.60;99.90;;;;;;5068129;28;20387;-57
2021/11/05 02:43:33;;;;;;;9.82;5.93;;;7.60;99.90;;;;;;5068341;28;20400;-57
2021/11/05 02:45:59;;;;;;;9.93;5.88;;;7.60;99.90;;;;;;5066173;28;20951;-58
2021/11/05 02:48:27;;;;;;;9.10;5.50;;;7.70;99.90;;;;;;5068338;28;20732;-57
2021/11/05 02:50:54;;;;;;;10.75;5.50;;;7.80;99.90;;;;;;5067658;28;20383;-57
2021/11/05 02:53:21;;;;;;;11.45;5.63;;;7.90;99.90;;;;;;5068059;28;20384;-57
2021/11/05 02:55:48;;;;;;;11.65;6.20;;;7.90;99.90;;;;;;5067820;28;20379;-58
2021/11/05 02:58:14;;;;;;;10.50;6.15;;;7.80;99.90;;;;;;5068227;28;20379;-57
2021/11/05 03:00:45;;;;;;;11.43;6.60;;;7.70;99.90;;;;;;5068437;28;20900;-59
2021/11/05 03:03:11;;;;;;;10.63;6.07;;;7.70;99.90;;;;;;5069600;28;20422;-57
2021/11/05 03:05:37;;;;;;;9.27;5.20;;;7.70;99.90;;;;;;5072121;28;20387;-57
2021/11/05 03:08:03;;;;;;;10.20;5.50;;;7.70;99.90;;;;;;5071293;28;20628;-57
2021/11/05 03:10:29;;;;;;;9.77;5.20;;;7.70;99.90;;;;;;5070336;28;20407;-57
2021/11/05 03:12:55;;;;;;;9.93;5.20;;;7.70;99.90;;;;;;5071204;28;20384;-57
2021/11/05 03:15:20;;;;;;;8.40;5.00;;;7.60;99.90;;;;;;5072054;28;20529;-57
2021/11/05 03:17:46;;;;;;;8.80;5.50;;;7.60;99.90;;;;;;5071326;28;20478;-57
2021/11/05 03:20:13;;;;;;;8.80;5.07;;;7.80;99.90;;;;;;5071917;28;20383;-57
2021/11/05 03:22:40;;;;;;;9.70;4.90;;;7.70;99.90;;;;;;5066558;28;20411;-57
2021/11/05 03:25:06;;;;;;;10.23;6.20;;;7.60;99.90;;;;;;5071479;28;20391;-57
2021/11/05 03:27:33;;;;;;;9.68;5.50;;;7.80;99.90;;;;;;5072106;28;20391;-57
2021/11/05 03:29:59;;;;;;;9.82;5.28;;;7.80;99.90;;;;;;5071171;28;20453;-57
2021/11/05 03:32:25;;;;;;;9.20;5.80;;;7.80;99.90;;;;;;5071862;28;20409;-57
2021/11/05 03:34:51;;;;;;;8.70;5.13;;;7.80;99.90;;;;;;5070225;28;20388;-57
2021/11/05 03:37:17;;;;;;;9.90;5.73;;;7.70;99.90;;;;;;5071067;28;20415;-58
2021/11/05 03:39:42;;;;;;;9.35;5.60;;;7.70;99.90;;;;;;5071287;28;20831;-59
2021/11/05 03:42:08;;;;;;;8.80;5.40;;;7.70;99.90;;;;;;5070987;28;20470;-57
2021/11/05 03:44:34;;;;;;;10.90;5.85;;;7.70;99.90;;;;;;5071616;28;20731;-58
2021/11/05 03:46:59;;;;;;;9.77;5.63;;;7.70;99.90;;;;;;5070429;28;20456;-57
2021/11/05 03:49:25;;;;;;;9.73;5.80;;;7.80;99.90;;;;;;5071485;28;20376;-57
2021/11/05 03:51:51;;;;;;;9.60;5.70;;;7.80;99.90;;;;;;5070314;28;20388;-57
2021/11/05 03:54:17;;;;;;;10.20;5.80;;;7.80;99.90;;;;;;5070130;28;20404;-57
2021/11/05 03:56:43;;;;;;;9.38;5.85;;;7.70;99.90;;;;;;5070975;28;20453;-59
2021/11/05 03:59:08;;;;;;;10.25;6.03;;;7.70;99.90;;;;;;5070482;28;20433;-58
2021/11/05 04:01:34;;;;;;;9.90;5.67;;;7.80;99.90;;;;;;5071314;28;20384;-57
2021/11/05 04:04:00;;;;;;;9.55;5.45;;;7.60;99.90;;;;;;5069883;28;20418;-57
2021/11/05 04:06:25;;;;;;;10.03;5.30;;;7.60;99.90;;;;;;5070979;28;20412;-57
2021/11/05 04:08:51;;;;;;;8.40;5.13;;;7.70;99.90;;;;;;5069649;28;20482;-57
2021/11/05 04:11:18;;;;;;;8.93;5.40;;;7.70;99.90;;;;;;5070700;28;20492;-57
2021/11/05 04:13:44;;;;;;;8.95;5.38;;;7.60;99.90;;;;;;5070423;28;20514;-59
2021/11/05 04:16:10;;;;;;;9.60;5.13;;;7.70;99.90;;;;;;5071058;28;20487;-57
2021/11/05 04:18:36;;;;;;;10.13;5.40;;;7.80;99.90;;;;;;5070086;28;20391;-57
2021/11/05 04:21:02;;;;;;;8.98;5.30;;;7.80;99.90;;;;;;5062592;28;20380;-57
2021/11/05 04:23:28;;;;;;;10.60;5.57;;;7.80;99.90;;;;;;5068955;28;20430;-57
2021/11/05 04:25:54;;;;;;;9.90;5.60;;;7.80;99.90;;;;;;5067046;28;20394;-57
2021/11/05 04:28:20;;;;;;;10.68;5.15;;;7.80;99.90;;;;;;5070606;28;20371;-57
2021/11/05 04:30:46;;;;;;;10.15;5.45;;;7.80;99.90;;;;;;5064310;28;20418;-59
2021/11/05 04:33:13;;;;;;;9.25;5.00;;;7.80;99.90;;;;;;5070565;28;20375;-57
2021/11/05 04:35:39;;;;;;;8.75;4.82;;;7.80;99.90;;;;;;5070327;28;20881;-57
2021/11/05 04:38:05;;;;;;;10.68;5.72;;;7.80;99.90;;;;;;5069303;28;20442;-57
2021/11/05 04:40:32;;;;;;;10.23;5.50;;;7.80;99.90;;;;;;5065774;28;20395;-57
2021/11/05 04:42:58;;;;;;;9.18;5.53;;;7.80;99.90;;;;;;5069515;28;20415;-57
2021/11/05 04:45:24;;;;;;;8.63;4.73;;;7.90;99.90;;;;;;5070169;28;20867;-57
2021/11/05 04:47:50;;;;;;;9.73;5.50;;;7.80;99.90;;;;;;5069323;28;20840;-57
2021/11/05 04:50:15;;;;;;;9.00;5.10;;;7.80;99.90;;;;;;5070493;28;20380;-56
2021/11/05 04:52:47;;;;;;;9.25;4.90;;;7.70;99.90;;;;;;5070198;28;20883;-57
2021/11/05 04:55:15;;;;;;;8.35;4.80;;;7.70;99.90;;;;;;5069601;28;20416;-57
2021/11/05 04:57:42;;;;;;;9.55;4.95;;;7.70;99.90;;;;;;5070418;28;20423;-58
2021/11/05 05:00:08;;;;;;;8.05;5.03;;;7.70;99.90;;;;;;5068284;28;20398;-57
2021/11/05 05:02:34;;;;;;;9.43;5.20;;;7.80;99.90;;;;;;5070239;28;20499;-59
2021/11/05 05:05:01;;;;;;;9.85;5.28;;;7.80;99.90;;;;;;5068806;28;20533;-57
2021/11/05 05:07:27;;;;;;;9.20;5.20;;;7.90;99.90;;;;;;5070226;28;20823;-58
2021/11/05 05:09:53;;;;;;;8.98;4.80;;;7.90;99.90;;;;;;5068847;28;20470;-57
2021/11/05 05:12:18;;;;;;;10.00;5.33;;;7.90;99.90;;;;;;5057078;28;20393;-58
2021/11/05 05:14:45;;;;;;;8.73;5.03;;;8.00;99.90;;;;;;5048807;28;20868;-59
2021/11/05 05:17:10;;;;;;;9.27;5.47;;;7.90;99.90;;;;;;5049298;28;20389;-57
2021/11/05 05:19:36;;;;;;;8.90;5.30;;;8.00;99.90;;;;;;5050005;28;20386;-58
2021/11/05 05:22:02;;;;;;;11.05;5.75;;;8.10;99.90;;;;;;5049492;28;20393;-57
2021/11/05 05:24:28;;;;;;;8.30;4.85;;;8.00;99.90;;;;;;5049862;28;20496;-58
2021/11/05 05:26:53;;;;;;;9.23;4.93;;;8.00;99.90;;;;;;5048098;28;20477;-58
2021/11/05 05:29:19;;;;;;;9.90;5.22;;;9.20;99.90;;;;;;5049701;28;20883;-58
2021/11/05 05:31:45;;;;;;;9.30;5.30;;;8.00;99.90;;;;;;5048970;28;20443;-60
2021/11/05 05:34:10;;;;;;;10.32;5.50;;;8.00;99.90;;;;;;5034661;28;20410;-57
2021/11/05 05:36:36;;;;;;;9.63;5.53;;;7.90;99.90;;;;;;5032553;28;20818;-58
2021/11/05 05:39:03;;;;;;;9.40;5.60;;;7.80;99.90;;;;;;5033038;28;20766;-58
2021/11/05 05:41:30;;;;;;;8.93;5.50;;;7.80;99.90;;;;;;5031417;28;20470;-57
2021/11/05 05:43:56;;;;;;;10.23;5.72;;;7.80;99.90;;;;;;5040833;28;20416;-58
2021/11/05 05:46:21;;;;;;;8.57;5.30;;;7.70;99.90;;;;;;5035814;28;20390;-57
2021/11/05 05:48:47;;;;;;;9.57;5.60;;;7.70;99.90;;;;;;5048283;28;20387;-59
2021/11/05 05:51:13;;;;;;;12.23;5.70;;;7.70;99.90;;;;;;5032436;28;20495;-58
2021/11/05 05:53:39;;;;;;;8.98;5.57;;;7.60;99.90;;;;;;5041632;28;20385;-57
2021/11/05 05:56:06;;;;;;;9.67;6.27;;;7.60;99.90;;;;;;5042382;28;20403;-57
2021/11/05 05:58:32;;;;;;;10.07;5.30;;;7.50;99.90;;;;;;5028954;28;20476;-57
2021/11/05 06:00:57;;;;;;;13.13;5.97;;;7.50;99.90;;;;;;5047057;28;20772;-57
2021/11/05 06:03:23;;;;;;;9.48;5.57;;;7.50;99.90;;;;;;5049489;28;20484;-57
2021/11/05 06:05:49;;;;;;;9.60;5.13;;;7.50;99.90;;;;;;5047860;28;20753;-58
2021/11/05 06:08:14;;;;;;;8.50;4.75;;;7.60;99.90;;;;;;5048804;28;20910;-57
2021/11/05 06:10:40;;;;;;;7.87;4.43;;;7.60;99.90;;;;;;5048432;28;20762;-57
2021/11/05 06:13:05;;;;;;;7.93;4.25;;;7.70;99.90;;;;;;5047890;28;20385;-57
2021/11/05 06:15:31;;;;;;;7.93;4.70;;;7.60;99.90;;;;;;5048473;28;20380;-57
2021/11/05 06:17:57;;;;;;;8.75;4.30;;;7.70;99.90;;;;;;5048208;28;20475;-57
2021/11/05 06:20:23;;;;;;;10.07;4.33;;;7.80;99.90;;;;;;5048907;28;20382;-57
2021/11/05 06:22:49;;;;;;;7.93;3.80;;;7.70;99.90;;;;;;5047832;28;20742;-58
2021/11/05 06:25:15;;;;;;;7.53;3.80;;;7.70;99.90;;;;;;5047553;28;20378;-57
2021/11/05 06:27:40;;;;;;;8.07;3.90;;;7.80;99.90;;;;;;5048696;28;20789;-57
2021/11/05 06:30:08;;;;;;;7.33;4.10;;;7.80;99.90;;;;;;5047868;28;20380;-57
2021/11/05 06:32:35;;;;;;;7.13;3.97;;;7.90;99.90;;;;;;5048650;28;20381;-57
2021/11/05 06:35:00;;;;;;;8.27;4.00;;;7.90;99.90;;;;;;5048009;28;20944;-57
2021/11/05 06:37:26;;;;;;;7.85;4.00;;;8.00;99.90;;;;;;5048199;28;20480;-57
2021/11/05 06:39:52;;;;;;;8.23;3.87;;;8.00;99.90;;;;;;5047788;28;20485;-57
2021/11/05 06:42:21;;;;;;;6.63;3.47;;;8.00;99.90;;;;;;5046889;28;20480;-57
2021/11/05 06:44:48;;;;;;;7.50;3.55;;;8.00;99.90;;;;;;5047911;28;20477;-59
2021/11/05 06:47:14;;;;;;;6.43;3.42;;;8.00;99.90;;;;;;5048279;28;20397;-57
2021/11/05 06:49:41;;;;;;;7.10;3.80;;;8.00;99.90;;;;;;5048223;28;20888;-57
2021/11/05 06:52:06;;;;;;;7.38;3.70;;;7.90;99.90;;;;;;5047651;28;21009;-57
2021/11/05 06:54:34;;;;;;;6.88;3.58;;;7.80;99.90;;;;;;5048724;28;20385;-57
2021/11/05 06:57:00;;;;;;;8.23;3.90;;;7.80;99.90;;;;;;5047924;28;20491;-57
2021/11/05 06:59:26;;;;;;;6.75;3.75;;;7.80;99.90;;;;;;5080619;28;20392;-58
2021/11/05 07:01:52;;;;;;;6.70;3.60;;;7.90;99.90;;;;;;5047522;28;20697;-57
2021/11/05 07:04:18;;;;;;;8.00;3.30;;;8.00;99.90;;;;;;5048743;28;20409;-57
2021/11/05 07:06:46;;;;;;;7.70;3.70;;;8.00;99.90;;;;;;5048162;28;20462;-57
2021/11/05 07:09:16;;;;;;;7.47;3.60;;;8.00;99.90;;;;;;5048266;28;20390;-56
2021/11/05 07:11:43;;;;;;;7.70;3.38;;;7.90;99.90;;;;;;5047804;28;20914;-56
2021/11/05 07:14:09;;;;;;;7.70;3.53;;;7.90;99.90;;;;;;5047749;28;20420;-56
2021/11/05 07:16:36;;;;;;;7.93;3.80;;;7.80;99.90;;;;;;5063907;28;20447;-55
2021/11/05 07:19:03;;;;;;;6.90;3.60;;;7.70;99.90;;;;;;5047280;28;20377;-56
2021/11/05 07:21:30;;;;;;;7.57;3.80;;;7.80;99.90;;;;;;5048025;28;20385;-56
2021/11/05 07:24:02;;;;;;;7.25;4.13;;;7.80;99.90;;;;;;5047542;28;20420;-55
2021/11/05 07:26:45;;;;;;;7.60;4.23;;;7.80;99.90;;;;;;5048169;28;20389;-55
2021/11/05 07:29:12;;;;;;;8.20;3.90;;;7.90;99.90;;;;;;5047600;28;20451;-56
2021/11/05 07:31:39;;;;;;;8.65;4.00;;;7.90;99.90;;;;;;5048205;28;20472;-56
2021/11/05 07:34:06;;;;;;;9.60;4.30;;;8.00;99.90;;;;;;5047009;28;20390;-56
2021/11/05 07:36:31;;;;;;;7.80;4.00;;;8.10;99.90;;;;;;5048093;28;20424;-58
2021/11/05 07:38:57;;;;;;;6.80;3.80;;;8.20;99.90;;;;;;5047771;28;20416;-58
2021/11/05 07:41:25;;;;;;;6.30;3.67;;;8.20;99.90;;;;;;5047526;28;20472;-57
2021/11/05 07:43:52;;;;;;;8.88;4.50;;;8.20;99.90;;;;;;5045894;28;20852;-56
2021/11/05 07:46:18;;;;;;;8.10;4.03;;;8.30;99.90;;;;;;5028288;28;20936;-59
2021/11/05 07:48:44;;;;;;;11.40;4.10;;;8.30;99.90;;;;;;5028525;28;20411;-58
2021/11/05 07:51:10;;;;;;;8.63;4.53;;;8.30;99.90;;;;;;5030889;28;20425;-58
2021/11/05 07:53:36;;;;;;;10.90;4.10;;;8.40;99.90;;;;;;5031980;28;20383;-58
2021/11/05 07:56:02;;;;;;;7.03;3.83;;;8.30;99.90;;;;;;5031221;28;20738;-56
2021/11/05 07:58:28;;;;;;;8.77;3.67;;;8.30;99.90;;;;;;5031134;28;20402;-58
2021/11/05 08:00:53;;;;;;;7.35;3.80;;;8.30;99.90;;;;;;5046450;28;20850;-58
2021/11/05 08:03:21;;;;;;;7.33;4.30;;;8.40;99.90;;;;;;5037225;28;20405;-56
2021/11/05 08:05:47;;;;;;;7.72;3.80;;;8.40;99.90;;;;;;5051259;28;20405;-61
2021/11/05 08:08:17;;;;;;;7.00;3.70;;;8.40;99.90;;;;;;5051551;28;20386;-58
2021/11/05 08:10:43;;;;;;;6.68;3.65;;;8.50;99.90;;;;;;5051032;28;20819;-58
2021/11/05 08:13:09;;;;;;;8.68;3.72;;;8.60;99.90;;;;;;5051113;28;20393;-59
2021/11/05 08:15:34;;;;;;;7.13;3.90;;;8.70;99.90;;;;;;5049842;28;20956;-58
2021/11/05 08:18:00;;;;;;;7.27;3.80;;;8.80;99.90;;;;;;5050378;28;20421;-58
2021/11/05 08:20:26;;;;;;;8.27;4.30;;;8.70;99.90;;;;;;5051333;28;20740;-58
2021/11/05 08:22:51;;;;;;;6.63;3.73;;;8.60;99.90;;;;;;5050483;28;20416;-59
2021/11/05 08:25:19;;;;;;;7.03;3.80;;;8.70;99.90;;;;;;5051257;28;20849;-59
2021/11/05 08:27:47;;;;;;;7.00;3.80;;;8.80;99.90;;;;;;5049915;28;20385;-59
2021/11/05 08:30:18;;;;;;;7.82;3.60;;;9.00;99.90;;;;;;5050872;28;20386;-58
2021/11/05 08:32:44;;;;;;;8.20;4.30;;;9.10;99.90;;;;;;5050887;28;20382;-58
2021/11/05 08:35:10;;;;;;;9.25;3.72;;;9.30;99.90;;;;;;5050526;28;20378;-58
2021/11/05 08:37:36;;;;;;;7.20;3.80;;;9.30;99.90;;;;;;5049100;28;20460;-59
2021/11/05 08:40:03;;;;;;;7.37;3.67;;;9.30;99.90;;;;;;5049705;28;20402;-58
2021/11/05 08:42:29;;;;;;;7.57;4.22;;;9.30;99.90;;;;;;5050242;28;20914;-58
2021/11/05 08:44:55;;;;;;;8.00;3.92;;;9.30;99.90;;;;;;5048198;28;20405;-58
2021/11/05 08:47:21;;;;;;;10.00;3.60;;;9.50;99.90;;;;;;5049923;28;20382;-58
2021/11/05 08:49:50;;;;;;;7.22;3.95;;;9.40;99.90;;;;;;5050760;28;20857;-58
2021/11/05 08:52:17;;;;;;;6.07;3.00;;;9.40;99.90;;;;;;5050192;28;20438;-58
2021/11/05 08:54:43;;;;;;;10.00;3.80;;;9.40;99.90;;;;;;5051023;28;20392;-58
2021/11/05 08:57:09;;;;;;;7.95;4.18;;;9.40;99.90;;;;;;5049995;28;20382;-58
2021/11/05 08:59:35;;;;;;;7.40;3.80;;;9.70;99.90;;;;;;5049212;28;20630;-59
2021/11/05 09:02:01;;;;;;;7.15;3.53;;;10.00;99.90;;;;;;5048260;28;20778;-59
2021/11/05 09:04:27;;;;;;;7.40;4.00;;;10.30;99.90;;;;;;5050875;28;20421;-59
2021/11/05 09:06:52;;;;;;;9.10;3.50;;;10.50;99.90;;;;;;5049312;28;20418;-59
2021/11/05 09:09:20;;;;;;;9.93;4.07;;;10.30;99.90;;;;;;5049131;28;20393;-58
2021/11/05 09:11:51;;;;;;;9.30;3.80;;;10.20;99.90;;;;;;5050132;28;20416;-59
2021/11/05 09:14:18;;;;;;;8.70;3.50;;;9.90;99.90;;;;;;5050204;28;20402;-59
2021/11/05 09:16:44;;;;;;;8.00;4.20;;;9.90;99.90;;;;;;5065528;28;20405;-58
2021/11/05 09:19:10;;;;;;;8.23;3.92;;;9.90;99.90;;;;;;5049602;28;21003;-59
2021/11/05 09:21:36;;;;;;;8.70;4.60;;;9.90;99.90;;;;;;5049909;28;20380;-58
2021/11/05 09:24:03;;;;;;;8.87;4.17;;;9.50;99.90;;;;;;5049573;28;20397;-58
2021/11/05 09:26:30;;;;;;;7.18;3.90;;;9.60;99.90;;;;;;5047386;28;20451;-59
2021/11/05 09:28:56;;;;;;;7.30;4.17;;;9.80;99.90;;;;;;5060556;28;20388;-58
2021/11/05 09:31:22;;;;;;;7.00;3.67;;;10.10;99.90;;;;;;5070262;28;20375;-59
2021/11/05 09:33:48;;;;;;;8.40;4.43;;;10.60;99.90;;;;;;5069908;28;20434;-59
2021/11/05 09:36:15;;;;;;;9.05;4.22;;;10.80;99.90;;;;;;5069064;28;20384;-57
2021/11/05 09:38:42;;;;;;;8.65;4.97;;;11.10;99.90;;;;;;5070044;28;20862;-56
2021/11/05 09:41:08;;;;;;;8.40;4.38;;;11.60;99.90;;;;;;5068893;28;20380;-60
2021/11/05 09:43:33;;;;;;;8.20;4.10;;;11.40;99.90;;;;;;5069638;28;20883;-56
2021/11/05 09:45:59;;;;;;;8.00;4.20;;;11.30;99.90;;;;;;5068605;28;20415;-58
2021/11/05 09:48:26;;;;;;;8.80;4.60;;;11.10;99.90;;;;;;5068519;28;20954;-57
2021/11/05 09:50:52;;;;;;;8.50;4.70;;;10.90;99.90;;;;;;5061741;28;20411;-62
2021/11/05 09:53:18;;;;;;;8.75;4.93;;;10.60;99.90;;;;;;5069281;28;20862;-56
2021/11/05 09:55:45;;;;;;;9.60;5.30;;;10.70;99.90;;;;;;5069274;28;20789;-57
2021/11/05 09:58:12;;;;;;;9.63;5.50;;;10.90;99.90;;;;;;5068580;28;20376;-59
2021/11/05 10:00:38;;;;;;;9.35;5.10;;;10.70;99.90;;;;;;5067029;28;20422;-57
2021/11/05 10:03:04;;;;;;;9.05;5.25;;;10.90;99.90;;;;;;5068140;28;20439;-58
2021/11/05 10:05:31;;;;;;;10.30;5.50;;;11.10;99.90;;;;;;5069369;28;20380;-57
2021/11/05 10:07:59;;;;;;;9.13;4.90;;;11.30;99.90;;;;;;5068476;28;20570;-56
2021/11/05 10:10:34;;;;;;;9.68;5.20;;;11.70;99.90;;;;;;5068295;28;20404;-57
2021/11/05 10:13:11;;;;;;;9.73;5.10;;;11.60;99.90;;;;;;5068130;28;20379;-56
2021/11/05 10:15:46;;;;;;;10.00;4.80;;;11.30;99.90;;;;;;5068933;28;20376;-57
2021/11/05 10:18:30;;;;;;;10.40;5.55;;;11.00;99.90;;;;;;5048193;28;20409;-58
2021/11/05 10:21:11;;;;;;;10.85;5.50;;;10.90;99.90;;;;;;5058673;28;20373;-57
2021/11/05 10:23:42;;;;;;;10.30;6.20;;;10.80;99.90;;;;;;5059541;28;20900;-56
2021/11/05 10:26:19;;;;;;;9.90;5.70;;;10.90;99.90;;;;;;5066746;28;20387;-57
2021/11/05 10:28:44;;;;;;;10.80;5.93;;;11.00;99.90;;;;;;5064424;28;20392;-56
2021/11/05 10:31:11;;;;;;;9.90;6.10;;;11.10;99.90;;;;;;5056623;28;20385;-59
2021/11/05 10:33:41;;;;;;;11.15;6.40;;;10.60;99.90;;;;;;5054348;28;20389;-58
2021/11/05 10:36:09;;;;;;;18.88;7.20;;;10.60;99.90;;;;;;5058186;28;20392;-58
2021/11/05 10:38:47;;;;;;;11.55;6.70;;;10.80;99.90;;;;;;5063767;28;20403;-57
2021/11/05 10:41:20;;;;;;;10.82;6.80;;;10.70;99.90;;;;;;5068190;28;20368;-57
2021/11/05 10:43:49;;;;;;;12.20;7.03;;;10.70;99.90;;;;;;5061902;28;20405;-57
2021/11/05 10:46:25;;;;;;;11.30;6.40;;;10.90;99.90;;;;;;5056981;28;20558;-57
2021/11/05 10:48:51;;;;;;;12.10;7.00;;;10.90;99.90;;;;;;5056277;28;20540;-56
2021/11/05 10:51:21;;;;;;;11.05;6.40;;;11.10;99.90;;;;;;5068489;28;20384;-57
2021/11/05 10:53:47;;;;;;;10.10;5.85;;;11.10;99.90;;;;;;5064400;28;20419;-57
2021/11/05 10:56:18;;;;;;;10.00;6.43;;;11.10;99.90;;;;;;5064604;28;20574;-56
2021/11/05 10:59:05;;;;;;;9.13;5.00;;;11.20;99.90;;;;;;5052764;28;20501;-56
2021/11/05 11:01:35;;;;;;;12.25;7.03;;;11.30;99.90;;;;;;5052044;28;20896;-57
2021/11/05 11:04:04;;;;;;;13.70;6.80;;;11.70;99.90;;;;;;5042907;28;20471;-58
2021/11/05 11:06:34;;;;;;;12.13;7.07;;;12.40;99.90;;;;;;5047859;28;20507;-56
2021/11/05 11:09:08;;;;;;;11.32;6.97;;;12.30;99.90;;;;;;5043680;28;20479;-57
2021/11/05 11:11:40;;;;;;;11.05;6.50;;;12.70;99.90;;;;;;5045957;28;21007;-57
2021/11/05 11:14:17;;;;;;;10.38;6.45;;;13.20;99.90;;;;;;5056938;28;20934;-57
2021/11/05 11:16:45;;;;;;;10.32;6.30;;;13.40;99.90;;;;;;5062436;28;20443;-57
2021/11/05 11:19:19;;;;;;;10.23;5.70;;;13.50;99.90;;;;;;5046960;28;20395;-58
2021/11/05 11:21:44;;;;;;;10.57;6.35;;;13.50;99.90;;;;;;5055374;28;20420;-59
2021/11/05 11:24:14;;;;;;;9.77;5.68;;;13.30;99.90;;;;;;5055878;28;20441;-58
2021/11/05 11:26:40;;;;;;;10.70;5.60;;;13.30;99.90;;;;;;5066852;28;20387;-58
2021/11/05 11:29:08;;;;;;;10.50;5.20;;;13.50;99.90;;;;;;5056032;28;20391;-58
2021/11/05 11:31:35;;;;;;;10.90;5.90;;;13.20;99.90;;;;;;5060186;28;20435;-64
2021/11/05 11:34:03;;;;;;;9.60;5.53;;;13.10;99.90;;;;;;5038914;28;20395;-58
2021/11/05 11:36:41;;;;;;;10.25;5.85;;;13.30;99.90;;;;;;5040222;28;20819;-58
2021/11/05 11:39:14;;;;;;;11.53;6.00;;;13.10;99.90;;;;;;5045897;28;20407;-58
2021/11/05 11:41:41;;;;;;;9.90;6.27;;;13.20;99.90;;;;;;5042477;28;20418;-58
2021/11/05 11:44:08;;;;;;;12.20;7.13;;;13.10;99.90;;;;;;5041057;28;20452;-63
2021/11/05 11:46:59;;;;;;;10.90;6.63;;;13.10;99.90;;;;;;5041349;28;20395;-64
2021/11/05 11:49:54;;;;;;;11.80;7.25;;;13.40;99.90;;;;;;5042610;28;20478;-56
2021/11/05 11:52:21;;;;;;;12.50;7.07;;;13.10;99.90;;;;;;5049577;28;20450;-57
2021/11/05 11:54:54;;;;;;;11.48;7.03;;;13.70;99.90;;;;;;5050655;28;20470;-57
2021/11/05 11:57:28;;;;;;;11.75;7.25;;;12.80;99.90;;;;;;5045109;28;20499;-56
2021/11/05 12:00:11;;;;;;;11.70;6.82;;;12.40;99.90;;;;;;5034474;28;20407;-56
2021/11/05 12:02:39;;;;;;;10.90;6.70;;;12.50;99.90;;;;;;5045226;28;20450;-56
2021/11/05 12:05:20;;;;;;;10.55;6.43;;;12.60;99.90;;;;;;5042918;28;20434;-56
2021/11/05 12:08:34;;;;;;;13.23;7.20;;;12.50;99.90;;;;;;5062525;28;20407;-56
2021/11/05 12:11:09;;;;;;;12.30;7.32;;;12.40;99.90;;;;;;5036931;28;20520;-58
2021/11/05 12:13:35;;;;;;;11.52;6.97;;;12.20;99.90;;;;;;5043621;28;20542;-56
2021/11/05 12:16:13;;;;;;;12.83;6.87;;;12.10;99.90;;;;;;5066529;28;20918;-56
2021/11/05 12:18:58;;;;;;;11.93;6.80;;;12.00;99.90;;;;;;5061543;28;20403;-56
2021/11/05 12:21:36;;;;;;;12.43;7.43;;;11.90;99.90;;;;;;5063065;28;20470;-56
2021/11/05 12:24:17;;;;;;;12.38;6.93;;;11.90;99.90;;;;;;5060993;28;20507;-57
2021/11/05 12:26:50;;;;;;;13.33;7.57;;;11.80;99.90;;;;;;5054184;28;20421;-57
2021/11/05 12:29:35;;;;;;;11.88;6.75;;;11.70;99.90;;;;;;5040039;28;20431;-57
2021/11/05 12:32:19;;;;;;;12.20;7.10;;;11.80;99.90;;;;;;5043733;28;20409;-59
2021/11/05 12:34:52;;;;;;;11.30;6.40;;;11.90;99.90;;;;;;5041368;28;20433;-57
2021/11/05 12:37:40;;;;;;;14.20;7.90;;;11.80;99.90;;;;;;5042917;28;20450;-56
2021/11/05 12:40:20;;;;;;;12.90;8.00;;;11.70;99.90;;;;;;5039202;28;20445;-57
2021/11/05 12:42:48;;;;;;;14.50;7.60;;;11.70;99.90;;;;;;5044375;28;20404;-56
2021/11/05 12:45:14;;;;;;;14.48;8.38;;;11.60;99.90;;;;;;5046016;28;20429;-56
2021/11/05 12:47:50;;;;;;;13.75;8.80;;;11.70;99.90;;;;;;5051759;28;20912;-57
2021/11/05 12:50:21;;;;;;;16.63;8.80;;;11.70;99.90;;;;;;5049678;28;20411;-56
2021/11/05 12:53:01;;;;;;;15.43;8.70;;;10.90;99.90;;;;;;5048856;28;20436;-58
2021/11/05 12:55:33;;;;;;;15.23;9.20;;;11.70;99.90;;;;;;5055032;28;20386;-56